createdAt,value
2023-04-09T00:02:16.962Z,48.38
2023-04-09T00:04:44.697Z,48.17
2023-04-09T00:07:12.243Z,48.21
2023-04-09T00:09:39.742Z,48.25
2023-04-09T00:12:07.321Z,48.27
2023-04-09T00:14:34.834Z,48.22
2023-04-09T00:17:02.422Z,48.17
2023-04-09T00:19:30.076Z,48.43
2023-04-09T00:21:57.571Z,48.07
2023-04-09T00:24:25.082Z,48.32
2023-04-09T00:26:53.472Z,48.19
2023-04-09T00:29:21.032Z,48.26
2023-04-09T00:31:48.684Z,48.22
2023-04-09T00:34:16.443Z,48.31
2023-04-09T00:36:43.996Z,48.33
2023-04-09T00:39:11.487Z,48.32
2023-04-09T00:41:39.022Z,48.80
2023-04-09T00:44:06.516Z,48.63
2023-04-09T00:46:34.007Z,48.67
2023-04-09T00:49:01.613Z,48.71
2023-04-09T00:51:29.176Z,48.75
2023-04-09T00:53:56.899Z,48.58
2023-04-09T00:56:24.940Z,48.63
2023-04-09T00:58:52.701Z,48.75
2023-04-09T01:01:20.789Z,48.82
2023-04-09T01:03:48.570Z,48.71
2023-04-09T01:06:33.614Z,48.84
2023-04-09T01:09:39.723Z,48.90
2023-04-09T01:12:25.975Z,48.78
2023-04-09T01:15:10.848Z,48.67
2023-04-09T01:17:50.480Z,48.92
2023-04-09T01:20:42.261Z,48.94
2023-04-09T01:23:30.074Z,48.88
2023-04-09T01:26:19.370Z,49.01
2023-04-09T01:28:57.567Z,49.02
2023-04-09T01:31:45.748Z,49.03
2023-04-09T01:34:14.972Z,49.06
2023-04-09T01:36:52.135Z,48.98
2023-04-09T01:39:19.953Z,49.28
2023-04-09T01:41:50.083Z,49.23
2023-04-09T01:44:19.390Z,49.26
2023-04-09T01:46:48.810Z,49.39
2023-04-09T01:49:17.913Z,49.33
2023-04-09T01:51:47.313Z,49.62
2023-04-09T01:54:16.398Z,49.77
2023-04-09T01:56:47.253Z,49.79
2023-04-09T01:59:15.729Z,49.72
2023-04-09T02:01:59.778Z,49.51
2023-04-09T02:04:36.796Z,49.49
2023-04-09T02:07:32.804Z,49.87
2023-04-09T02:10:01.675Z,50.00
2023-04-09T02:12:33.896Z,50.03
2023-04-09T02:15:03.165Z,50.10
2023-04-09T02:17:30.714Z,50.13
2023-04-09T02:19:58.298Z,50.25
2023-04-09T02:22:25.843Z,50.26
2023-04-09T02:24:53.404Z,50.00
2023-04-09T02:27:20.884Z,49.97
2023-04-09T02:29:49.060Z,50.16
2023-04-09T02:32:16.674Z,50.14
2023-04-09T02:34:44.217Z,50.39
2023-04-09T02:37:11.756Z,50.37
2023-04-09T02:39:39.278Z,50.28
2023-04-09T02:42:07.838Z,50.26
2023-04-09T02:44:35.702Z,50.06
2023-04-09T02:47:03.284Z,50.26
2023-04-09T02:49:31.224Z,50.26
2023-04-09T02:51:58.724Z,50.17
2023-04-09T02:54:26.319Z,50.38
2023-04-09T02:56:53.932Z,50.39
2023-04-09T02:59:21.413Z,50.37
2023-04-09T03:01:49.157Z,50.58
2023-04-09T03:04:16.840Z,50.34
2023-04-09T03:06:44.347Z,50.45
2023-04-09T03:09:11.845Z,50.47
2023-04-09T03:11:39.769Z,50.72
2023-04-09T03:14:07.274Z,50.60
2023-04-09T03:16:34.803Z,50.52
2023-04-09T03:19:02.315Z,50.57
2023-04-09T03:21:29.849Z,50.54
2023-04-09T03:23:57.379Z,50.49
2023-04-09T03:26:24.998Z,50.54
2023-04-09T03:28:53.310Z,50.22
2023-04-09T03:31:21.013Z,50.58
2023-04-09T03:33:48.685Z,50.52
2023-04-09T03:36:16.223Z,50.20
2023-04-09T03:39:15.829Z,50.37
2023-04-09T03:41:44.926Z,50.30
2023-04-09T03:44:16.108Z,50.52
2023-04-09T03:46:56.022Z,50.34
2023-04-09T03:49:24.058Z,50.35
2023-04-09T03:51:51.591Z,50.30
2023-04-09T03:54:19.849Z,50.64
2023-04-09T03:56:47.916Z,50.63
2023-04-09T03:59:20.847Z,50.62
2023-04-09T04:01:48.927Z,50.55
2023-04-09T04:04:16.853Z,50.70
2023-04-09T04:06:48.835Z,50.77
2023-04-09T04:09:24.752Z,50.64
2023-04-09T04:11:58.850Z,50.64
2023-04-09T04:14:38.938Z,50.69
2023-04-09T04:17:17.034Z,50.88
2023-04-09T04:19:45.845Z,50.80
2023-04-09T04:22:13.370Z,50.65
2023-04-09T04:24:44.437Z,50.63
2023-04-09T04:27:15.986Z,50.81
2023-04-09T04:29:43.469Z,50.96
2023-04-09T04:32:28.352Z,50.82
2023-04-09T04:34:56.747Z,51.01
2023-04-09T04:37:26.978Z,50.98
2023-04-09T04:39:58.412Z,50.63
2023-04-09T04:42:26.082Z,50.71
2023-04-09T04:44:53.625Z,50.89
2023-04-09T04:47:36.045Z,50.85
2023-04-09T04:50:06.771Z,50.84
2023-04-09T04:52:43.593Z,50.81
2023-04-09T04:55:11.973Z,51.02
2023-04-09T04:57:39.464Z,50.90
2023-04-09T05:00:08.530Z,51.00
2023-04-09T05:02:37.230Z,51.15
2023-04-09T05:05:17.288Z,51.24
2023-04-09T05:07:51.618Z,50.79
2023-04-09T05:10:19.211Z,51.15
2023-04-09T05:12:47.242Z,50.81
2023-04-09T05:15:22.608Z,51.02
2023-04-09T05:17:50.957Z,51.08
2023-04-09T05:20:19.394Z,51.25
2023-04-09T05:22:53.919Z,51.18
2023-04-09T05:25:28.963Z,51.05
2023-04-09T05:27:57.248Z,51.30
2023-04-09T05:30:25.938Z,51.38
2023-04-09T05:32:54.304Z,51.44
2023-04-09T05:35:25.259Z,51.47
2023-04-09T05:37:53.344Z,51.35
2023-04-09T05:40:21.791Z,51.20
2023-04-09T05:42:50.377Z,51.20
2023-04-09T05:45:25.802Z,51.25
2023-04-09T05:47:54.504Z,51.83
2023-04-09T05:50:23.765Z,51.56
2023-04-09T05:52:54.337Z,51.22
2023-04-09T05:55:23.357Z,51.32
2023-04-09T05:57:55.942Z,51.18
2023-04-09T06:00:23.576Z,51.38
2023-04-09T06:02:51.379Z,51.47
2023-04-09T06:05:19.115Z,51.48
2023-04-09T06:07:48.229Z,51.24
2023-04-09T06:10:15.897Z,51.57
2023-04-09T06:12:43.509Z,51.62
2023-04-09T06:15:11.456Z,51.33
2023-04-09T06:17:39.075Z,51.55
2023-04-09T06:20:07.377Z,51.29
2023-04-09T06:22:34.870Z,51.55
2023-04-09T06:25:02.596Z,51.42
2023-04-09T06:27:30.142Z,51.47
2023-04-09T06:29:57.628Z,51.76
2023-04-09T06:32:25.284Z,51.49
2023-04-09T06:34:52.794Z,51.76
2023-04-09T06:37:20.262Z,51.58
2023-04-09T06:40:00.402Z,51.53
2023-04-09T06:42:29.001Z,51.48
2023-04-09T06:45:10.581Z,51.45
2023-04-09T06:47:38.101Z,51.91
2023-04-09T06:50:06.310Z,51.53
2023-04-09T06:52:33.834Z,51.68
2023-04-09T06:55:01.343Z,51.51
2023-04-09T06:57:28.867Z,51.48
2023-04-09T06:59:56.475Z,51.89
2023-04-09T07:02:24.082Z,51.53
2023-04-09T07:04:51.772Z,51.94
2023-04-09T07:07:20.839Z,51.99
2023-04-09T07:09:49.539Z,51.80
2023-04-09T07:12:27.740Z,52.12
2023-04-09T07:15:13.093Z,51.84
2023-04-09T07:17:40.745Z,52.08
2023-04-09T07:20:08.834Z,51.99
2023-04-09T07:22:36.677Z,52.17
2023-04-09T07:25:04.631Z,52.18
2023-04-09T07:27:32.476Z,51.73
2023-04-09T07:30:00.385Z,51.80
2023-04-09T07:32:28.625Z,51.67
2023-04-09T07:34:57.196Z,51.78
2023-04-09T07:37:25.211Z,52.10
2023-04-09T07:39:53.334Z,52.06
2023-04-09T07:42:21.012Z,51.94
2023-04-09T07:44:48.718Z,51.97
2023-04-09T07:47:16.620Z,52.06
2023-04-09T07:49:44.141Z,52.03
2023-04-09T07:52:12.017Z,52.23
2023-04-09T07:54:39.548Z,51.94
2023-04-09T07:57:07.192Z,51.93
2023-04-09T07:59:35.074Z,51.94
2023-04-09T08:02:02.648Z,51.71
2023-04-09T08:04:30.604Z,51.83
2023-04-09T08:06:58.302Z,51.15
2023-04-09T08:09:25.918Z,50.70
2023-04-09T08:11:53.515Z,50.96
2023-04-09T08:14:21.215Z,51.08
2023-04-09T08:16:50.307Z,50.95
2023-04-09T08:19:20.035Z,50.64
2023-04-09T08:21:49.476Z,49.36
2023-04-09T08:24:17.311Z,48.84
2023-04-09T08:26:44.942Z,48.45
2023-04-09T08:29:14.776Z,48.32
2023-04-09T08:31:42.999Z,47.76
2023-04-09T08:34:10.530Z,47.48
2023-04-09T08:36:38.065Z,47.08
2023-04-09T08:39:05.577Z,46.81
2023-04-09T08:41:34.245Z,46.43
2023-04-09T08:44:01.981Z,46.22
2023-04-09T08:46:29.502Z,46.24
2023-04-09T08:48:57.124Z,45.40
2023-04-09T08:51:24.988Z,45.55
2023-04-09T08:54:03.636Z,44.81
2023-04-09T08:56:32.227Z,44.29
2023-04-09T08:58:59.741Z,44.49
2023-04-09T09:01:31.992Z,44.31
2023-04-09T09:04:08.216Z,43.85
2023-04-09T09:06:40.182Z,43.39
2023-04-09T09:09:16.348Z,43.65
2023-04-09T09:11:50.910Z,43.14
2023-04-09T09:14:19.670Z,42.98
2023-04-09T09:16:56.473Z,43.10
2023-04-09T09:19:26.864Z,42.68
2023-04-09T09:22:00.500Z,42.65
2023-04-09T09:24:28.759Z,42.39
2023-04-09T09:26:57.447Z,40.75
2023-04-09T09:29:26.164Z,41.17
2023-04-09T09:31:56.171Z,40.49
2023-04-09T09:34:25.896Z,40.41
2023-04-09T09:36:53.578Z,40.56
2023-04-09T09:39:22.096Z,40.66
2023-04-09T09:42:08.263Z,40.81
2023-04-09T09:44:35.819Z,40.94
2023-04-09T09:47:04.702Z,40.66
2023-04-09T09:49:32.231Z,40.25
2023-04-09T09:52:03.351Z,40.18
2023-04-09T09:54:42.811Z,39.85
2023-04-09T09:57:13.590Z,39.98
2023-04-09T09:59:47.636Z,39.45
2023-04-09T10:02:20.661Z,39.60
2023-04-09T10:04:52.819Z,39.26
2023-04-09T10:07:22.307Z,39.21
2023-04-09T10:09:51.943Z,39.09
2023-04-09T10:12:25.606Z,38.61
2023-04-09T10:14:55.597Z,38.56
2023-04-09T10:17:23.079Z,37.96
2023-04-09T10:20:59.003Z,38.50
2023-04-09T10:23:44.883Z,38.01
2023-04-09T10:26:12.384Z,37.32
2023-04-09T10:28:40.348Z,36.87
2023-04-09T10:31:08.620Z,36.59
2023-04-09T10:33:39.568Z,36.22
2023-04-09T10:36:12.694Z,35.52
2023-04-09T10:38:45.096Z,34.62
2023-04-09T10:41:22.985Z,34.59
2023-04-09T10:43:50.895Z,33.99
2023-04-09T10:46:35.879Z,34.85
2023-04-09T10:49:13.413Z,34.54
2023-04-09T10:51:41.834Z,34.08
2023-04-09T10:54:33.923Z,35.06
2023-04-09T10:57:07.340Z,34.20
2023-04-09T10:59:55.192Z,34.05
2023-04-09T11:03:05.685Z,34.04
2023-04-09T11:05:39.601Z,33.56
2023-04-09T11:08:11.878Z,33.98
2023-04-09T11:10:42.384Z,33.38
2023-04-09T11:13:15.220Z,33.64
2023-04-09T11:15:44.843Z,33.86
2023-04-09T11:18:24.217Z,33.88
2023-04-09T11:20:59.865Z,33.51
2023-04-09T11:23:28.516Z,34.07
2023-04-09T11:25:56.453Z,33.32
2023-04-09T11:28:24.512Z,33.45
2023-04-09T11:30:52.788Z,32.60
2023-04-09T11:33:20.869Z,33.04
2023-04-09T11:35:48.731Z,33.05
2023-04-09T11:38:16.558Z,32.62
2023-04-09T11:40:49.834Z,32.15
2023-04-09T11:43:17.997Z,32.29
2023-04-09T11:45:48.431Z,31.97
2023-04-09T11:48:21.616Z,31.41
2023-04-09T11:50:49.690Z,31.87
2023-04-09T11:53:19.412Z,32.02
2023-04-09T11:55:51.987Z,32.42
2023-04-09T11:58:26.435Z,32.11
2023-04-09T12:00:56.226Z,31.96
2023-04-09T12:03:34.931Z,31.80
2023-04-09T12:06:04.979Z,32.08
2023-04-09T12:08:36.248Z,31.91
2023-04-09T12:11:12.717Z,32.51
2023-04-09T12:13:43.136Z,32.29
2023-04-09T12:16:14.755Z,32.22
2023-04-09T12:18:42.620Z,32.29
2023-04-09T12:21:10.429Z,32.19
2023-04-09T12:23:37.918Z,32.47
2023-04-09T12:26:05.430Z,32.41
2023-04-09T12:28:32.882Z,32.12
2023-04-09T12:31:00.453Z,32.12
2023-04-09T12:33:27.925Z,31.66
2023-04-09T12:35:58.167Z,31.06
2023-04-09T12:38:26.637Z,31.17
2023-04-09T12:40:54.179Z,31.00
2023-04-09T12:43:21.680Z,30.76
2023-04-09T12:45:49.282Z,31.00
2023-04-09T12:48:16.776Z,31.30
2023-04-09T12:50:44.548Z,31.38
2023-04-09T12:53:12.023Z,31.07
2023-04-09T12:55:41.540Z,30.73
2023-04-09T12:58:10.192Z,30.46
2023-04-09T13:00:37.721Z,30.26
2023-04-09T13:03:05.318Z,30.34
2023-04-09T13:05:35.452Z,30.62
2023-04-09T13:08:03.357Z,29.90
2023-04-09T13:10:31.520Z,29.20
2023-04-09T13:12:59.013Z,29.56
2023-04-09T13:15:27.267Z,29.85
2023-04-09T13:17:56.355Z,29.50
2023-04-09T13:20:24.059Z,29.49
2023-04-09T13:22:52.274Z,29.54
2023-04-09T13:25:19.770Z,29.41
2023-04-09T13:27:47.243Z,29.45
2023-04-09T13:30:14.916Z,29.03
2023-04-09T13:32:42.679Z,28.95
2023-04-09T13:35:11.309Z,28.32
2023-04-09T13:37:38.931Z,28.05
2023-04-09T13:40:09.097Z,28.25
2023-04-09T13:42:37.505Z,28.33
2023-04-09T13:45:05.962Z,28.04
2023-04-09T13:47:33.519Z,28.10
2023-04-09T13:50:01.409Z,28.06
2023-04-09T13:52:29.758Z,28.19
2023-04-09T13:54:57.442Z,28.30
2023-04-09T13:57:24.960Z,28.31
2023-04-09T13:59:52.529Z,28.35
2023-04-09T14:02:20.534Z,28.41
2023-04-09T14:04:48.767Z,28.64
2023-04-09T14:07:16.431Z,28.78
2023-04-09T14:09:44.059Z,28.46
2023-04-09T14:12:11.522Z,27.89
2023-04-09T14:14:39.194Z,27.58
2023-04-09T14:17:06.693Z,28.29
2023-04-09T14:19:34.173Z,28.14
2023-04-09T14:22:01.677Z,28.17
2023-04-09T14:24:29.210Z,28.06
2023-04-09T14:26:56.747Z,28.33
2023-04-09T14:29:24.238Z,28.08
2023-04-09T14:31:53.183Z,27.57
2023-04-09T14:34:21.850Z,27.87
2023-04-09T14:36:49.623Z,27.71
2023-04-09T14:39:17.774Z,27.88
2023-04-09T14:41:45.257Z,28.34
2023-04-09T14:44:12.778Z,27.85
2023-04-09T14:46:40.326Z,27.86
2023-04-09T14:49:07.908Z,27.64
2023-04-09T14:51:35.493Z,27.45
2023-04-09T14:54:03.071Z,27.61
2023-04-09T14:56:30.929Z,27.84
2023-04-09T14:58:58.570Z,28.03
2023-04-09T15:01:27.339Z,28.03
2023-04-09T15:03:55.646Z,27.66
2023-04-09T15:06:23.413Z,27.75
2023-04-09T15:08:51.047Z,27.49
2023-04-09T15:11:20.577Z,27.80
2023-04-09T15:13:48.160Z,27.97
2023-04-09T15:16:28.229Z,27.92
2023-04-09T15:18:58.414Z,27.78
2023-04-09T15:21:27.605Z,27.49
2023-04-09T15:23:56.076Z,26.96
2023-04-09T15:26:23.592Z,27.03
2023-04-09T15:28:53.469Z,27.25
2023-04-09T15:31:21.312Z,27.18
2023-04-09T15:33:50.262Z,27.42
2023-04-09T15:36:17.861Z,27.36
2023-04-09T15:38:45.542Z,27.52
2023-04-09T15:41:13.337Z,27.74
2023-04-09T15:43:40.796Z,27.66
2023-04-09T15:46:11.606Z,27.51
2023-04-09T15:48:39.165Z,27.07
2023-04-09T15:51:07.117Z,26.75
2023-04-09T15:53:34.616Z,26.36
2023-04-09T15:56:03.545Z,26.19
2023-04-09T15:58:31.579Z,26.08
2023-04-09T16:00:59.313Z,26.12
2023-04-09T16:03:26.895Z,26.01
2023-04-09T16:05:54.383Z,25.67
2023-04-09T16:08:21.898Z,25.72
2023-04-09T16:10:49.401Z,25.76
2023-04-09T16:13:16.880Z,25.97
2023-04-09T16:15:45.327Z,25.62
2023-04-09T16:18:12.845Z,26.00
2023-04-09T16:20:40.376Z,25.99
2023-04-09T16:23:07.855Z,25.88
2023-04-09T16:25:36.110Z,25.84
2023-04-09T16:28:03.670Z,25.77
2023-04-09T16:30:31.852Z,25.75
2023-04-09T16:32:59.446Z,26.06
2023-04-09T16:35:26.959Z,26.03
2023-04-09T16:37:54.436Z,26.49
2023-04-09T16:40:24.427Z,26.47
2023-04-09T16:42:51.989Z,26.77
2023-04-09T16:45:19.486Z,26.70
2023-04-09T16:47:50.106Z,26.91
2023-04-09T16:50:20.515Z,26.96
2023-04-09T16:52:48.512Z,27.12
2023-04-09T16:55:16.736Z,27.04
2023-04-09T16:57:44.238Z,27.25
2023-04-09T17:00:12.813Z,27.35
2023-04-09T17:02:40.366Z,27.41
2023-04-09T17:05:09.024Z,27.48
2023-04-09T17:07:36.517Z,28.02
2023-04-09T17:10:04.721Z,28.16
2023-04-09T17:12:32.421Z,28.08
2023-04-09T17:15:01.107Z,27.96
2023-04-09T17:17:28.642Z,27.98
2023-04-09T17:19:58.292Z,27.99
2023-04-09T17:22:25.896Z,28.10
2023-04-09T17:24:53.730Z,28.42
2023-04-09T17:27:21.705Z,28.73
2023-04-09T17:29:49.264Z,28.78
2023-04-09T17:32:16.749Z,28.98
2023-04-09T17:34:49.169Z,29.19
2023-04-09T17:37:16.824Z,29.10
2023-04-09T17:39:44.315Z,29.50
2023-04-09T17:42:12.050Z,29.11
2023-04-09T17:44:39.633Z,29.25
2023-04-09T17:47:07.466Z,29.34
2023-04-09T17:49:35.048Z,29.19
2023-04-09T17:52:02.562Z,29.30
2023-04-09T17:54:34.518Z,29.90
2023-04-09T17:57:04.073Z,29.35
2023-04-09T17:59:33.630Z,29.57
2023-04-09T18:02:01.995Z,29.63
2023-04-09T18:04:29.770Z,29.62
2023-04-09T18:06:57.320Z,29.77
2023-04-09T18:09:24.815Z,29.83
2023-04-09T18:11:56.206Z,29.85
2023-04-09T18:14:23.932Z,29.94
2023-04-09T18:16:51.730Z,30.23
2023-04-09T18:19:19.299Z,30.13
2023-04-09T18:21:47.277Z,30.52
2023-04-09T18:24:15.016Z,30.37
2023-04-09T18:26:42.494Z,30.17
2023-04-09T18:29:10.176Z,30.33
2023-04-09T18:31:37.647Z,30.72
2023-04-09T18:34:05.574Z,30.46
2023-04-09T18:36:33.092Z,30.64
2023-04-09T18:39:00.611Z,30.44
2023-04-09T18:41:29.992Z,30.80
2023-04-09T18:43:57.473Z,30.67
2023-04-09T18:46:25.186Z,30.83
2023-04-09T18:48:52.906Z,30.69
2023-04-09T18:51:21.043Z,30.88
2023-04-09T18:53:52.803Z,30.88
2023-04-09T18:56:21.138Z,31.01
2023-04-09T18:58:48.987Z,30.96
2023-04-09T19:01:17.448Z,30.99
2023-04-09T19:03:45.726Z,31.14
2023-04-09T19:06:17.760Z,31.25
2023-04-09T19:08:46.652Z,31.33
2023-04-09T19:11:14.884Z,31.32
2023-04-09T19:13:42.412Z,31.45
2023-04-09T19:16:09.953Z,31.34
2023-04-09T19:18:38.088Z,31.49
2023-04-09T19:21:07.419Z,31.50
2023-04-09T19:23:35.215Z,31.44
2023-04-09T19:26:03.709Z,31.48
2023-04-09T19:28:31.684Z,31.62
2023-04-09T19:31:01.297Z,31.70
2023-04-09T19:33:30.361Z,31.77
2023-04-09T19:35:57.873Z,31.86
2023-04-09T19:38:25.356Z,31.83
2023-04-09T19:40:52.951Z,31.97
2023-04-09T19:43:20.432Z,32.10
2023-04-09T19:45:47.936Z,31.96
2023-04-09T19:48:15.535Z,32.14
2023-04-09T19:50:43.718Z,32.24
2023-04-09T19:53:11.274Z,32.41
2023-04-09T19:55:39.130Z,32.53
2023-04-09T19:58:07.141Z,32.68
2023-04-09T20:00:34.774Z,32.52
2023-04-09T20:03:02.995Z,32.74
2023-04-09T20:05:30.736Z,32.66
2023-04-09T20:07:58.214Z,32.67
2023-04-09T20:10:25.848Z,33.00
2023-04-09T20:12:54.028Z,32.94
2023-04-09T20:15:21.579Z,32.98
2023-04-09T20:17:50.646Z,33.01
2023-04-09T20:20:19.800Z,32.94
2023-04-09T20:22:55.728Z,32.95
2023-04-09T20:25:24.751Z,33.38
2023-04-09T20:27:55.944Z,33.35
2023-04-09T20:30:23.511Z,33.40
2023-04-09T20:32:51.011Z,33.30
2023-04-09T20:35:18.724Z,33.46
2023-04-09T20:37:48.274Z,33.47
2023-04-09T20:40:16.349Z,33.38
2023-04-09T20:42:44.087Z,33.61
2023-04-09T20:45:11.776Z,33.48
2023-04-09T20:47:39.439Z,33.38
2023-04-09T20:50:07.607Z,33.83
2023-04-09T20:52:35.198Z,33.69
2023-04-09T20:55:02.940Z,33.68
2023-04-09T20:57:30.427Z,34.02
2023-04-09T20:59:57.981Z,33.70
2023-04-09T21:02:25.638Z,33.87
2023-04-09T21:04:53.503Z,33.85
2023-04-09T21:07:21.198Z,34.09
2023-04-09T21:09:49.313Z,34.27
2023-04-09T21:12:16.807Z,34.24
2023-04-09T21:14:44.396Z,34.19
2023-04-09T21:17:11.944Z,34.36
2023-04-09T21:19:39.477Z,34.27
2023-04-09T21:22:06.981Z,34.39
2023-04-09T21:24:35.296Z,34.49
2023-04-09T21:27:06.720Z,34.72
2023-04-09T21:29:34.923Z,34.68
2023-04-09T21:32:02.496Z,34.93
2023-04-09T21:34:30.278Z,34.76
2023-04-09T21:36:57.765Z,34.82
2023-04-09T21:39:25.285Z,34.95
2023-04-09T21:41:52.766Z,34.98
2023-04-09T21:44:20.516Z,35.06
2023-04-09T21:46:48.204Z,34.94
2023-04-09T21:49:15.704Z,34.89
2023-04-09T21:51:46.379Z,35.30
2023-04-09T21:54:13.926Z,35.22
2023-04-09T21:56:41.456Z,35.16
2023-04-09T21:59:09.026Z,35.58
2023-04-09T22:01:37.239Z,35.22
2023-04-09T22:04:05.009Z,35.60
2023-04-09T22:06:32.854Z,35.50
2023-04-09T22:09:00.711Z,35.49
2023-04-09T22:11:28.867Z,35.65
2023-04-09T22:13:57.495Z,35.77
2023-04-09T22:16:26.199Z,35.77
2023-04-09T22:18:54.866Z,35.98
2023-04-09T22:21:22.744Z,35.98
2023-04-09T22:23:50.255Z,35.87
2023-04-09T22:26:17.940Z,35.85
2023-04-09T22:28:45.541Z,36.17
2023-04-09T22:31:13.433Z,36.15
2023-04-09T22:33:40.957Z,36.18
2023-04-09T22:36:08.714Z,36.20
2023-04-09T22:38:36.553Z,36.41
2023-04-09T22:41:04.193Z,36.28
2023-04-09T22:43:31.706Z,36.26
2023-04-09T22:45:59.197Z,36.46
2023-04-09T22:48:27.079Z,36.56
2023-04-09T22:50:54.561Z,36.54
2023-04-09T22:53:22.249Z,36.83
2023-04-09T22:55:51.458Z,36.89
2023-04-09T22:58:19.287Z,37.08
2023-04-09T23:00:47.506Z,36.93
2023-04-09T23:03:15.908Z,37.20
2023-04-09T23:05:43.883Z,36.98
2023-04-09T23:08:12.042Z,37.13
2023-04-09T23:10:39.537Z,37.20
2023-04-09T23:13:07.089Z,37.17
2023-04-09T23:15:34.684Z,37.46
2023-04-09T23:18:02.221Z,37.34
2023-04-09T23:20:29.833Z,37.29
2023-04-09T23:22:57.309Z,37.74
2023-04-09T23:25:24.801Z,37.56
2023-04-09T23:27:52.317Z,37.67
2023-04-09T23:30:21.567Z,37.41
2023-04-09T23:32:49.163Z,37.92
2023-04-09T23:35:16.844Z,37.87
2023-04-09T23:37:44.395Z,38.18
2023-04-09T23:40:12.360Z,37.96
2023-04-09T23:42:39.874Z,38.07
2023-04-09T23:45:08.066Z,37.92
2023-04-09T23:47:37.195Z,38.38
2023-04-09T23:50:06.916Z,38.18
2023-04-09T23:52:37.208Z,38.32
2023-04-09T23:55:09.121Z,38.31
2023-04-09T23:57:36.720Z,38.28
